createdAt,value
2022-12-08T00:05:25.472Z,-0.6
2022-12-08T00:10:56.963Z,-0.5
2022-12-08T00:16:24.888Z,-0.7
2022-12-08T00:21:42.258Z,-0.6
2022-12-08T00:27:15.873Z,-0.4
2022-12-08T00:32:41.589Z,-0.4
2022-12-08T00:38:23.768Z,-0.4
2022-12-08T00:44:04.365Z,-0.3
2022-12-08T00:49:21.607Z,-0.4
2022-12-08T00:54:59.484Z,-0.3
2022-12-08T01:00:44.369Z,-0.2
2022-12-08T01:05:50.431Z,-0.2
2022-12-08T01:11:31.347Z,-0.3
2022-12-08T01:16:51.382Z,-0.5
2022-12-08T01:22:41.341Z,-0.5
2022-12-08T01:28:12.218Z,-0.5
2022-12-08T01:33:25.609Z,-0.5
2022-12-08T01:39:23.386Z,-0.5
2022-12-08T01:44:54.781Z,-0.5
2022-12-08T01:50:27.638Z,-0.6
2022-12-08T01:55:33.156Z,-0.6
2022-12-08T02:01:03.120Z,-0.6
2022-12-08T02:06:38.046Z,-0.5
2022-12-08T02:12:24.795Z,-0.5
2022-12-08T02:18:03.836Z,-0.5
2022-12-08T02:23:34.263Z,-0.5
2022-12-08T02:28:41.653Z,-0.5
2022-12-08T02:34:17.117Z,-0.5
2022-12-08T02:39:40.924Z,-0.5
2022-12-08T02:45:16.061Z,-0.4
2022-12-08T02:51:01.609Z,-0.3
2022-12-08T02:56:37.619Z,-0.3
2022-12-08T03:02:00.307Z,-0.3
2022-12-08T03:07:42.898Z,-0.3
2022-12-08T03:12:59.171Z,-0.2
2022-12-08T03:18:30.250Z,-0.3
2022-12-08T03:24:19.540Z,-0.2
2022-12-08T03:29:44.304Z,-0.2
2022-12-08T03:35:07.801Z,-0.1
2022-12-08T03:40:37.802Z,-0.1
2022-12-08T03:46:04.385Z,0.1
2022-12-08T03:51:31.395Z,0.3
2022-12-08T03:57:17.387Z,0.2
2022-12-08T04:02:53.422Z,0.1
2022-12-08T04:08:08.259Z,0
2022-12-08T04:13:41.108Z,0
2022-12-08T04:19:13.140Z,0.1
2022-12-08T04:24:51.585Z,0
2022-12-08T04:30:09.249Z,-0.1
2022-12-08T04:35:53.357Z,0
2022-12-08T04:41:36.806Z,0
2022-12-08T04:46:50.289Z,-0.1
2022-12-08T04:52:41.164Z,0
2022-12-08T04:57:49.575Z,0
2022-12-08T05:03:37.238Z,0
2022-12-08T05:08:55.774Z,0
2022-12-08T05:14:45.031Z,0
2022-12-08T05:20:07.969Z,0
2022-12-08T05:25:44.099Z,0
2022-12-08T05:31:11.039Z,0
2022-12-08T05:36:39.502Z,-0.1
2022-12-08T05:41:58.394Z,0
2022-12-08T05:47:41.393Z,0
2022-12-08T05:52:58.876Z,0
2022-12-08T05:58:38.942Z,0
2022-12-08T06:04:14.324Z,0
2022-12-08T06:09:38.841Z,0
2022-12-08T06:15:11.266Z,0
2022-12-08T06:21:02.741Z,0
2022-12-08T06:26:31.613Z,0
2022-12-08T06:32:00.025Z,0
2022-12-08T06:37:31.662Z,0
2022-12-08T06:43:06.115Z,0
2022-12-08T06:48:23.371Z,0
2022-12-08T06:54:04.452Z,0
2022-12-08T06:59:15.771Z,0
2022-12-08T07:05:10.059Z,0
2022-12-08T07:10:25.106Z,0
2022-12-08T07:16:16.646Z,0
2022-12-08T07:21:23.071Z,0
2022-12-08T07:27:18.477Z,0
2022-12-08T07:32:34.717Z,0.1
2022-12-08T07:38:16.708Z,0
2022-12-08T07:43:46.785Z,0.2
2022-12-08T07:48:57.414Z,0.3
2022-12-08T07:54:32.126Z,0.2
2022-12-08T08:00:12.473Z,0.2
2022-12-08T08:05:49.026Z,0.3
2022-12-08T08:11:24.017Z,0.3
2022-12-08T08:16:58.030Z,0.4
2022-12-08T08:22:30.987Z,0.5
2022-12-08T08:27:54.649Z,0.5
2022-12-08T08:33:10.114Z,0.5
2022-12-08T08:39:06.927Z,0.5
2022-12-08T08:44:31.570Z,0.7
2022-12-08T08:49:50.340Z,0.8
2022-12-08T08:55:15.943Z,0.8
2022-12-08T09:00:47.330Z,0.8
2022-12-08T09:06:38.146Z,1
2022-12-08T09:12:11.296Z,1.3
2022-12-08T09:17:48.356Z,1
2022-12-08T09:23:04.412Z,1.1
2022-12-08T09:28:24.620Z,1.4
2022-12-08T09:34:11.417Z,1.4
2022-12-08T09:39:36.795Z,1.4
2022-12-08T09:45:07.922Z,1.7
2022-12-08T09:50:44.784Z,2.1
2022-12-08T09:56:21.739Z,2.3
2022-12-08T10:01:51.317Z,2.4
2022-12-08T10:07:21.441Z,2.6
2022-12-08T10:12:44.829Z,3.1
2022-12-08T10:18:10.606Z,3.8
2022-12-08T10:24:01.451Z,3.7
2022-12-08T10:29:32.019Z,3.8
2022-12-08T10:35:07.936Z,4.5
2022-12-08T10:40:32.497Z,3.9
2022-12-08T10:46:05.478Z,4.2
2022-12-08T10:51:45.038Z,4.7
2022-12-08T10:57:00.392Z,3.4
2022-12-08T11:02:32.623Z,2.8
2022-12-08T11:08:07.712Z,2.9
2022-12-08T11:13:44.114Z,3
2022-12-08T11:19:07.670Z,2.8
2022-12-08T11:24:43.907Z,2.8
2022-12-08T11:30:15.777Z,2.8
2022-12-08T11:35:41.443Z,2.8
2022-12-08T11:41:32.152Z,2.9
2022-12-08T11:46:57.080Z,2.7
2022-12-08T11:52:30.973Z,3
2022-12-08T11:58:06.194Z,3.2
2022-12-08T12:03:31.227Z,3.2
2022-12-08T12:08:55.396Z,3.6
2022-12-08T12:14:38.921Z,3.7
2022-12-08T12:20:04.542Z,3.7
2022-12-08T12:25:38.981Z,3.6
2022-12-08T12:31:13.771Z,4.4
2022-12-08T12:36:38.230Z,4.4
2022-12-08T12:42:06.250Z,4.6
2022-12-08T12:47:36.698Z,4.2
2022-12-08T12:53:25.658Z,4.9
2022-12-08T12:58:57.208Z,3.9
2022-12-08T13:04:16.508Z,3.4
2022-12-08T13:10:05.032Z,3.3
2022-12-08T13:15:26.106Z,3.2
2022-12-08T13:20:50.562Z,3.7
2022-12-08T13:26:39.659Z,4
2022-12-08T13:31:58.169Z,4.5
2022-12-08T13:37:48.242Z,4.9
2022-12-08T13:43:15.445Z,5
2022-12-08T13:50:23.305Z,5.1
2022-12-08T13:59:29.903Z,5
2022-12-08T14:05:17.884Z,5.4
2022-12-08T14:10:58.391Z,5.6
2022-12-08T14:16:19.580Z,5
2022-12-08T14:21:45.547Z,4.8
2022-12-08T14:27:10.797Z,4.7
2022-12-08T14:32:59.787Z,5
2022-12-08T14:38:37.125Z,4.5
2022-12-08T14:44:04.188Z,4.1
2022-12-08T14:49:29.447Z,3.8
2022-12-08T14:55:12.734Z,3.7
2022-12-08T15:00:46.825Z,3.5
2022-12-08T15:05:58.737Z,3.3
2022-12-08T15:11:42.969Z,3.1
2022-12-08T15:16:57.029Z,2.9
2022-12-08T15:22:45.950Z,2.8
2022-12-08T15:28:23.014Z,2.8
2022-12-08T15:33:38.102Z,2.4
2022-12-08T15:39:20.018Z,2.6
2022-12-08T15:44:41.618Z,2.5
2022-12-08T15:50:03.471Z,2.3
2022-12-08T15:55:38.629Z,1.9
2022-12-08T16:01:08.846Z,1.6
2022-12-08T16:07:20.634Z,1.3
2022-12-08T16:12:17.276Z,1.2
2022-12-08T16:17:39.832Z,1.4
2022-12-08T16:23:34.491Z,1.1
2022-12-08T16:28:59.269Z,1.1
2022-12-08T16:34:19.007Z,1.4
2022-12-08T16:39:58.143Z,1.2
2022-12-08T16:45:25.788Z,0.7
2022-12-08T16:51:12.801Z,0.6
2022-12-08T16:56:32.496Z,0.4
2022-12-08T17:02:08.235Z,0.1
2022-12-08T17:07:32.337Z,0.2
2022-12-08T17:13:07.421Z,0.9
2022-12-08T17:18:24.508Z,1.2
2022-12-08T17:24:05.502Z,1.2
2022-12-08T17:29:33.249Z,1.1
2022-12-08T17:35:10.292Z,1.1
2022-12-08T17:40:30.963Z,0.7
2022-12-08T17:46:23.427Z,0.6
2022-12-08T17:51:49.256Z,0.7
2022-12-08T17:57:04.859Z,0.8
2022-12-08T18:02:59.700Z,0.7
2022-12-08T18:08:16.713Z,0.5
2022-12-08T18:13:46.211Z,0.4
2022-12-08T18:19:33.020Z,0.1
2022-12-08T18:25:02.259Z,0.1
2022-12-08T18:30:23.614Z,0
2022-12-08T18:36:06.545Z,0
2022-12-08T18:41:22.968Z,-0.1
2022-12-08T18:46:48.172Z,0
2022-12-08T18:52:31.109Z,0
2022-12-08T18:58:00.718Z,0.2
2022-12-08T19:03:23.138Z,0.4
2022-12-08T19:08:54.754Z,0.3
2022-12-08T19:14:38.792Z,0.3
2022-12-08T19:19:56.046Z,0.4
2022-12-08T19:25:33.915Z,0.4
2022-12-08T19:31:13.169Z,0.4
2022-12-08T19:36:47.267Z,0.5
2022-12-08T19:42:11.131Z,0.4
2022-12-08T19:47:49.902Z,0.3
2022-12-08T19:53:15.512Z,0.3
2022-12-08T19:58:31.745Z,0.3
2022-12-08T20:04:15.780Z,0.3
2022-12-08T20:09:33.601Z,0.4
2022-12-08T20:15:05.581Z,0.4
2022-12-08T20:20:38.237Z,0.5
2022-12-08T20:26:33.217Z,0.6
2022-12-08T20:31:48.440Z,0.5
2022-12-08T20:37:10.685Z,0.6
2022-12-08T20:42:44.778Z,0.7
2022-12-08T20:48:26.179Z,0.7
2022-12-08T20:53:47.161Z,0.8
2022-12-08T20:59:26.446Z,0.7
2022-12-08T21:05:15.669Z,0.7
2022-12-08T21:10:45.612Z,0.7
2022-12-08T21:15:53.826Z,0.7
2022-12-08T21:21:34.948Z,0.7
2022-12-08T21:27:08.707Z,0.7
2022-12-08T21:32:31.108Z,0.7
2022-12-08T21:38:02.187Z,0.7
2022-12-08T21:43:35.775Z,0.8
2022-12-08T21:49:23.518Z,0.8
2022-12-08T21:54:34.661Z,0.7
2022-12-08T22:00:15.038Z,0.7
2022-12-08T22:05:59.541Z,0.7
2022-12-08T22:11:07.771Z,0.8
2022-12-08T22:17:00.779Z,0.9
2022-12-08T22:22:08.470Z,1
2022-12-08T22:28:02.723Z,1
2022-12-08T22:33:12.301Z,1
2022-12-08T22:39:07.469Z,1
2022-12-08T22:44:28.846Z,1
2022-12-08T22:50:11.520Z,0.9
2022-12-08T22:55:43.690Z,0.8
2022-12-08T23:00:55.259Z,0.8
2022-12-08T23:06:28.454Z,0.9
2022-12-08T23:12:07.254Z,0.9
2022-12-08T23:17:47.435Z,1.1
2022-12-08T23:23:14.220Z,1
2022-12-08T23:28:44.435Z,0.9
2022-12-08T23:34:16.335Z,0.7
2022-12-08T23:39:38.295Z,0.7
2022-12-08T23:45:04.893Z,0.7
2022-12-08T23:50:49.437Z,0.7
2022-12-08T23:56:02.966Z,0.7
